createdAt,value
2019-05-06T00:01:04.640Z,8.98
2019-05-06T00:03:34.362Z,8.08
2019-05-06T00:06:03.952Z,7.87
2019-05-06T00:08:34.561Z,8.68
2019-05-06T00:11:02.462Z,8.00
2019-05-06T00:13:30.750Z,8.95
2019-05-06T00:15:59.029Z,8.80
2019-05-06T00:18:27.324Z,7.67
2019-05-06T00:20:57.546Z,8.48
2019-05-06T00:23:27.273Z,9.35
2019-05-06T00:25:57.197Z,8.50
2019-05-06T00:28:27.143Z,9.50
2019-05-06T00:31:10.329Z,9.43
2019-05-06T00:33:29.483Z,8.83
2019-05-06T00:36:00.331Z,8.73
2019-05-06T00:38:27.801Z,8.70
2019-05-06T00:41:14.418Z,9.63
2019-05-06T00:43:43.713Z,9.05
2019-05-06T00:46:13.888Z,9.43
2019-05-06T00:48:42.250Z,9.85
2019-05-06T00:51:10.540Z,9.50
2019-05-06T00:53:40.534Z,9.33
2019-05-06T00:56:09.095Z,9.88
2019-05-06T00:58:37.394Z,9.73
2019-05-06T01:01:05.759Z,10.58
2019-05-06T01:03:34.687Z,9.60
2019-05-06T01:06:04.035Z,9.65
2019-05-06T01:08:34.645Z,9.93
2019-05-06T01:11:04.050Z,10.25
2019-05-06T01:13:35.111Z,9.73
2019-05-06T01:16:04.260Z,9.90
2019-05-06T01:18:34.023Z,10.15
2019-05-06T01:21:11.260Z,10.18
2019-05-06T01:24:03.984Z,10.18
2019-05-06T01:26:33.733Z,10.05
2019-05-06T01:29:03.993Z,9.98
2019-05-06T01:31:42.288Z,10.75
2019-05-06T01:34:04.302Z,11.40
2019-05-06T01:36:34.391Z,11.25
2019-05-06T01:39:21.317Z,10.93
2019-05-06T01:41:51.242Z,11.10
2019-05-06T01:44:19.552Z,10.82
2019-05-06T01:46:47.844Z,11.08
2019-05-06T01:49:16.157Z,11.60
2019-05-06T01:51:46.015Z,11.03
2019-05-06T01:54:14.373Z,10.98
2019-05-06T01:56:44.429Z,10.18
2019-05-06T01:59:14.017Z,10.80
2019-05-06T02:01:54.979Z,11.95
2019-05-06T02:04:13.870Z,11.03
2019-05-06T02:06:43.818Z,10.80
2019-05-06T02:09:14.550Z,10.82
2019-05-06T02:11:44.434Z,9.28
2019-05-06T02:14:13.972Z,9.75
2019-05-06T02:16:43.631Z,9.78
2019-05-06T02:19:12.067Z,9.70
2019-05-06T02:21:43.820Z,9.20
2019-05-06T02:24:24.302Z,9.28
2019-05-06T02:26:54.244Z,8.85
2019-05-06T02:29:24.751Z,9.65
2019-05-06T02:32:21.099Z,9.90
2019-05-06T02:34:54.882Z,9.30
2019-05-06T02:37:27.784Z,10.13
2019-05-06T02:39:57.923Z,9.58
2019-05-06T02:42:26.201Z,9.48
2019-05-06T02:44:54.689Z,10.00
2019-05-06T02:47:39.444Z,9.95
2019-05-06T02:50:15.365Z,10.53
2019-05-06T02:52:44.285Z,10.43
2019-05-06T02:55:13.090Z,10.45
2019-05-06T02:57:44.058Z,11.00
2019-05-06T03:00:17.173Z,11.73
2019-05-06T03:02:48.090Z,11.38
2019-05-06T03:05:15.802Z,11.50
2019-05-06T03:07:44.090Z,10.53
2019-05-06T03:10:15.965Z,11.43
2019-05-06T03:12:44.251Z,11.63
2019-05-06T03:15:16.220Z,11.75
2019-05-06T03:17:43.501Z,13.03
2019-05-06T03:20:15.789Z,12.05
2019-05-06T03:22:48.670Z,12.15
2019-05-06T03:27:46.902Z,12.50
2019-05-06T03:30:17.039Z,12.70
2019-05-06T03:33:20.984Z,12.88
2019-05-06T03:35:33.620Z,12.65
2019-05-06T03:37:45.698Z,13.18
2019-05-06T03:40:14.061Z,12.75
2019-05-06T03:42:42.804Z,13.58
2019-05-06T03:45:13.315Z,13.08
2019-05-06T03:47:43.707Z,13.15
2019-05-06T03:50:13.276Z,13.18
2019-05-06T03:52:43.052Z,12.73
2019-05-06T03:55:13.852Z,13.43
2019-05-06T03:57:42.767Z,13.95
2019-05-06T04:00:15.924Z,12.23
2019-05-06T04:02:43.669Z,13.10
2019-05-06T04:05:13.284Z,13.25
2019-05-06T04:07:45.461Z,12.63
2019-05-06T04:10:13.679Z,12.45
2019-05-06T04:12:44.542Z,14.13
2019-05-06T04:15:14.284Z,13.60
2019-05-06T04:17:53.332Z,12.58
2019-05-06T04:20:23.632Z,12.07
2019-05-06T04:23:06.439Z,13.38
2019-05-06T04:25:48.428Z,12.35
2019-05-06T04:28:18.403Z,12.23
2019-05-06T04:30:46.927Z,13.13
2019-05-06T04:33:17.425Z,13.58
2019-05-06T04:35:46.100Z,13.00
2019-05-06T04:38:14.472Z,13.48
2019-05-06T04:40:43.987Z,13.68
2019-05-06T04:43:13.339Z,13.15
2019-05-06T04:45:43.295Z,13.50
2019-05-06T04:48:14.295Z,14.75
2019-05-06T04:50:44.368Z,14.38
2019-05-06T04:53:13.712Z,14.05
2019-05-06T04:55:43.619Z,13.30
2019-05-06T04:58:13.496Z,12.85
2019-05-06T05:00:44.635Z,13.03
2019-05-06T05:03:14.068Z,12.58
2019-05-06T05:05:44.905Z,13.13
2019-05-06T05:08:13.313Z,11.83
2019-05-06T05:10:56.269Z,12.47
2019-05-06T05:13:34.666Z,12.58
2019-05-06T05:16:22.095Z,12.23
2019-05-06T05:18:53.076Z,11.33
2019-05-06T05:21:22.919Z,11.68
2019-05-06T05:23:52.344Z,11.50
2019-05-06T05:26:22.532Z,11.35
2019-05-06T05:28:50.723Z,11.12
2019-05-06T05:31:19.006Z,11.18
2019-05-06T05:33:47.699Z,11.22
2019-05-06T05:36:15.985Z,11.15
2019-05-06T05:38:44.300Z,10.70
2019-05-06T05:41:12.591Z,10.25
2019-05-06T05:43:45.440Z,11.05
2019-05-06T05:48:43.090Z,9.65
2019-05-06T05:51:12.760Z,9.93
2019-05-06T05:53:42.589Z,9.23
2019-05-06T05:56:12.316Z,9.68
2019-05-06T05:58:42.426Z,9.18
2019-05-06T06:01:12.706Z,9.48
2019-05-06T06:03:42.178Z,9.95
2019-05-06T06:06:12.695Z,9.28
2019-05-06T06:08:42.924Z,9.73
2019-05-06T06:11:15.585Z,9.35
2019-05-06T06:16:13.441Z,9.43
2019-05-06T06:18:43.368Z,9.25
2019-05-06T06:21:28.237Z,8.55
2019-05-06T06:24:13.214Z,8.50
2019-05-06T06:26:42.929Z,8.80
2019-05-06T06:29:12.528Z,10.08
2019-05-06T06:31:42.844Z,8.95
2019-05-06T06:34:13.051Z,9.53
2019-05-06T06:36:43.318Z,8.65
2019-05-06T06:39:16.008Z,10.13
2019-05-06T06:41:44.310Z,8.50
2019-05-06T06:44:17.165Z,8.65
2019-05-06T06:49:13.367Z,9.08
2019-05-06T06:51:42.444Z,8.73
2019-05-06T06:54:12.405Z,8.13
2019-05-06T06:57:08.288Z,8.70
2019-05-06T06:59:31.885Z,8.60
2019-05-06T07:02:02.837Z,8.48
2019-05-06T07:04:32.713Z,9.20
2019-05-06T07:07:02.950Z,9.23
2019-05-06T07:09:32.339Z,9.23
2019-05-06T07:12:03.313Z,8.80
2019-05-06T07:14:32.670Z,9.28
2019-05-06T07:17:02.451Z,9.33
2019-05-06T07:19:35.644Z,8.23
2019-05-06T07:22:06.838Z,7.80
2019-05-06T07:24:33.997Z,8.25
2019-05-06T07:27:09.897Z,7.87
2019-05-06T07:29:38.178Z,8.30
2019-05-06T07:32:06.468Z,8.45
2019-05-06T07:34:34.752Z,8.43
2019-05-06T07:37:03.607Z,8.00
2019-05-06T07:39:33.387Z,7.75
2019-05-06T07:42:03.556Z,8.13
2019-05-06T07:44:36.083Z,8.08
2019-05-06T07:47:06.027Z,8.05
2019-05-06T07:49:34.319Z,7.55
2019-05-06T07:52:02.976Z,8.03
2019-05-06T07:54:32.990Z,7.53
2019-05-06T07:57:02.379Z,7.85
2019-05-06T07:59:33.269Z,7.67
2019-05-06T08:02:02.255Z,7.45
2019-05-06T08:04:32.479Z,7.33
2019-05-06T08:07:02.921Z,8.15
2019-05-06T08:09:32.576Z,7.70
2019-05-06T08:12:02.765Z,8.65
2019-05-06T08:14:43.514Z,7.80
2019-05-06T08:17:14.493Z,7.85
2019-05-06T08:19:42.804Z,7.37
2019-05-06T08:22:18.166Z,7.87
2019-05-06T08:24:46.470Z,7.55
2019-05-06T08:27:14.761Z,7.03
2019-05-06T08:29:43.074Z,8.38
2019-05-06T08:32:12.284Z,7.40
2019-05-06T08:34:42.144Z,7.85
2019-05-06T08:37:18.426Z,7.72
2019-05-06T08:39:46.725Z,7.45
2019-05-06T08:42:15.047Z,7.22
2019-05-06T08:44:43.367Z,7.70
2019-05-06T08:47:13.263Z,7.20
2019-05-06T08:49:58.427Z,6.58
2019-05-06T08:52:28.345Z,6.83
2019-05-06T08:54:58.299Z,6.15
2019-05-06T08:57:26.657Z,6.55
2019-05-06T08:59:54.952Z,6.22
2019-05-06T09:02:24.521Z,6.45
2019-05-06T09:04:52.817Z,6.20
2019-05-06T09:07:21.115Z,7.17
2019-05-06T09:09:49.441Z,6.53
2019-05-06T09:12:17.734Z,6.20
2019-05-06T09:14:46.034Z,5.53
2019-05-06T09:17:14.322Z,5.80
2019-05-06T09:19:42.828Z,6.70
2019-05-06T09:22:12.902Z,6.12
2019-05-06T09:24:42.667Z,6.08
2019-05-06T09:27:16.076Z,6.37
2019-05-06T09:29:46.475Z,5.92
2019-05-06T09:32:16.398Z,6.10
2019-05-06T09:34:52.997Z,6.00
2019-05-06T09:37:24.002Z,5.83
2019-05-06T09:39:53.443Z,6.12
2019-05-06T09:42:23.064Z,5.28
2019-05-06T09:44:54.233Z,5.90
2019-05-06T09:47:23.258Z,4.87
2019-05-06T09:49:53.082Z,5.20
2019-05-06T09:52:23.092Z,5.42
2019-05-06T09:54:53.677Z,4.55
2019-05-06T09:57:29.572Z,4.62
2019-05-06T09:59:57.925Z,4.60
2019-05-06T10:02:26.226Z,5.15
2019-05-06T10:04:54.526Z,4.67
2019-05-06T10:07:22.889Z,5.00
2019-05-06T10:09:52.686Z,5.12
2019-05-06T10:12:21.174Z,5.15
2019-05-06T10:14:49.503Z,5.28
2019-05-06T10:17:17.949Z,5.62
2019-05-06T10:19:46.244Z,5.55
2019-05-06T10:22:14.569Z,5.55
2019-05-06T10:24:43.350Z,6.28
2019-05-06T10:27:12.658Z,5.62
2019-05-06T10:29:54.385Z,5.83
2019-05-06T10:32:24.333Z,6.15
2019-05-06T10:34:52.810Z,6.70
2019-05-06T10:37:45.213Z,6.42
2019-05-06T10:40:24.721Z,4.93
2019-05-06T10:43:02.751Z,6.00
2019-05-06T10:45:32.411Z,5.72
2019-05-06T10:48:02.404Z,5.80
2019-05-06T10:50:32.501Z,5.42
2019-05-06T10:53:13.513Z,5.10
2019-05-06T10:55:42.861Z,5.50
2019-05-06T10:58:12.809Z,4.87
2019-05-06T11:00:42.454Z,5.08
2019-05-06T11:03:19.742Z,5.45
2019-05-06T11:05:49.134Z,4.80
2019-05-06T11:08:17.432Z,4.42
2019-05-06T11:10:45.915Z,4.20
2019-05-06T11:13:14.523Z,4.50
2019-05-06T11:15:43.585Z,4.22
2019-05-06T11:18:13.549Z,3.83
2019-05-06T11:20:43.796Z,4.05
2019-05-06T11:23:14.076Z,5.15
2019-05-06T11:25:43.241Z,5.00
2019-05-06T11:28:29.960Z,4.42
2019-05-06T11:31:02.215Z,4.65
2019-05-06T11:33:32.919Z,4.75
2019-05-06T11:36:03.029Z,4.08
2019-05-06T11:38:32.254Z,4.28
2019-05-06T11:41:00.619Z,3.45
2019-05-06T11:43:28.892Z,4.40
2019-05-06T11:45:57.207Z,4.60
2019-05-06T11:48:25.492Z,3.77
2019-05-06T11:50:55.431Z,4.33
2019-05-06T11:53:23.731Z,4.30
2019-05-06T11:55:54.343Z,4.22
2019-05-06T11:58:42.832Z,4.70
2019-05-06T12:01:25.061Z,4.33
2019-05-06T12:03:53.342Z,3.70
2019-05-06T12:06:22.713Z,3.87
2019-05-06T12:08:52.403Z,4.00
2019-05-06T12:11:23.437Z,3.95
2019-05-06T12:13:53.253Z,3.72
2019-05-06T12:16:26.144Z,4.12
2019-05-06T12:18:52.904Z,3.67
2019-05-06T12:21:23.179Z,3.62
2019-05-06T12:23:53.685Z,3.50
2019-05-06T12:26:21.669Z,3.52
2019-05-06T12:28:49.962Z,3.80
2019-05-06T12:31:18.257Z,3.40
2019-05-06T12:33:48.262Z,3.55
2019-05-06T12:36:18.811Z,3.60
2019-05-06T12:39:06.356Z,3.70
2019-05-06T12:41:33.479Z,3.72
2019-05-06T12:44:03.153Z,3.42
2019-05-06T12:46:43.104Z,3.22
2019-05-06T12:49:12.722Z,3.33
2019-05-06T12:51:43.270Z,3.10
2019-05-06T12:54:12.922Z,2.80
2019-05-06T12:56:42.530Z,3.50
2019-05-06T12:59:12.721Z,3.27
2019-05-06T13:01:44.963Z,2.80
2019-05-06T13:04:13.672Z,3.95
2019-05-06T13:06:45.851Z,3.62
2019-05-06T13:09:12.687Z,3.37
2019-05-06T13:11:43.095Z,3.50
2019-05-06T13:14:12.678Z,3.10
2019-05-06T13:16:42.510Z,3.08
2019-05-06T13:19:12.149Z,3.12
2019-05-06T13:21:42.284Z,3.00
2019-05-06T13:24:12.165Z,3.37
2019-05-06T13:26:43.094Z,3.60
2019-05-06T13:29:18.133Z,3.58
2019-05-06T13:31:46.492Z,3.62
2019-05-06T13:34:17.081Z,3.75
2019-05-06T13:36:45.666Z,3.85
2019-05-06T13:39:15.413Z,3.72
2019-05-06T13:41:43.876Z,4.72
2019-05-06T13:44:15.905Z,3.98
2019-05-06T13:46:45.816Z,4.55
2019-05-06T13:49:22.749Z,3.90
2019-05-06T13:51:56.010Z,4.25
2019-05-06T13:54:24.328Z,4.90
2019-05-06T13:56:52.610Z,5.28
2019-05-06T13:59:20.913Z,5.17
2019-05-06T14:01:52.671Z,5.20
2019-05-06T14:04:23.896Z,6.15
2019-05-06T14:06:52.794Z,5.35
2019-05-06T14:09:31.308Z,5.92
2019-05-06T14:11:52.523Z,6.08
2019-05-06T14:14:22.680Z,5.60
2019-05-06T14:16:53.365Z,5.60
2019-05-06T14:19:22.523Z,5.78
2019-05-06T14:21:52.321Z,6.08
2019-05-06T14:24:22.204Z,6.08
2019-05-06T14:27:10.101Z,6.20
2019-05-06T14:29:55.101Z,6.65
2019-05-06T14:32:23.732Z,7.08
2019-05-06T14:34:53.513Z,7.62
2019-05-06T14:37:22.567Z,8.18
2019-05-06T14:39:58.914Z,8.03
2019-05-06T14:42:22.718Z,7.40
2019-05-06T14:44:51.015Z,9.53
2019-05-06T14:47:23.111Z,8.95
2019-05-06T14:49:52.934Z,7.47
2019-05-06T14:52:22.638Z,7.78
2019-05-06T14:54:53.454Z,8.00
2019-05-06T14:57:22.919Z,7.72
2019-05-06T14:59:55.198Z,7.22
2019-05-06T15:02:25.968Z,7.05
2019-05-06T15:04:53.658Z,7.75
2019-05-06T15:07:22.196Z,7.62
2019-05-06T15:10:07.641Z,6.75
2019-05-06T15:12:22.951Z,7.35
2019-05-06T15:14:52.665Z,7.67
2019-05-06T15:17:22.894Z,6.75
2019-05-06T15:19:52.505Z,7.22
2019-05-06T15:22:22.623Z,7.37
2019-05-06T15:24:53.742Z,7.55
2019-05-06T15:27:22.723Z,6.97
2019-05-06T15:29:53.937Z,7.42
2019-05-06T15:32:32.613Z,7.15
2019-05-06T15:35:18.680Z,7.20
2019-05-06T15:37:48.593Z,6.97
2019-05-06T15:40:31.108Z,6.40
2019-05-06T15:42:47.146Z,6.08
2019-05-06T15:45:15.566Z,6.90
2019-05-06T15:47:44.241Z,6.40
2019-05-06T15:50:12.986Z,6.90
2019-05-06T15:52:43.513Z,6.87
2019-05-06T15:55:11.688Z,6.55
2019-05-06T15:57:39.992Z,5.87
2019-05-06T16:00:09.992Z,7.30
2019-05-06T16:02:38.298Z,7.10
2019-05-06T16:05:14.047Z,8.05
2019-05-06T16:07:37.655Z,7.47
2019-05-06T16:10:07.217Z,7.85
2019-05-06T16:12:35.496Z,8.08
2019-05-06T16:15:07.660Z,8.05
2019-05-06T16:17:35.971Z,8.38
2019-05-06T16:20:05.805Z,8.40
2019-05-06T16:22:34.106Z,8.60
2019-05-06T16:25:04.042Z,8.25
2019-05-06T16:27:32.335Z,9.35
2019-05-06T16:30:03.430Z,10.00
2019-05-06T16:32:33.205Z,15.68
2019-05-06T16:35:00.956Z,16.77
2019-05-06T16:37:29.291Z,18.57
2019-05-06T16:39:57.613Z,17.27
2019-05-06T16:42:25.880Z,18.70
2019-05-06T16:44:54.175Z,19.10
2019-05-06T16:47:38.400Z,19.70
2019-05-06T16:50:09.194Z,16.80
2019-05-06T16:52:37.515Z,17.20
2019-05-06T16:55:09.471Z,18.42
2019-05-06T16:57:37.773Z,19.23
2019-05-06T17:00:10.877Z,19.95
2019-05-06T17:02:43.172Z,19.07
2019-05-06T17:05:22.433Z,17.17
2019-05-06T17:07:52.652Z,17.00
2019-05-06T17:10:22.781Z,17.95
2019-05-06T17:12:53.399Z,18.40
2019-05-06T17:15:22.889Z,18.75
2019-05-06T17:17:52.991Z,21.37
2019-05-06T17:20:22.781Z,20.75
2019-05-06T17:22:53.228Z,20.75
2019-05-06T17:25:22.437Z,21.75
2019-05-06T17:27:52.695Z,19.67
2019-05-06T17:30:22.871Z,18.02
2019-05-06T17:32:52.820Z,19.80
2019-05-06T17:35:22.804Z,23.75
2019-05-06T17:37:55.422Z,25.82
2019-05-06T17:40:23.845Z,26.35
2019-05-06T17:42:53.288Z,29.15
2019-05-06T17:45:39.915Z,29.23
2019-05-06T17:48:12.571Z,25.90
2019-05-06T17:50:41.909Z,19.00
2019-05-06T17:53:11.754Z,22.30
2019-05-06T17:55:39.966Z,24.00
2019-05-06T17:58:08.292Z,22.67
2019-05-06T18:00:36.589Z,19.92
2019-05-06T18:03:04.895Z,18.98
2019-05-06T18:05:33.195Z,18.37
2019-05-06T18:08:02.848Z,18.02
2019-05-06T18:10:33.487Z,18.67
2019-05-06T18:13:03.225Z,18.07
2019-05-06T18:15:32.196Z,17.05
2019-05-06T18:18:02.163Z,16.27
2019-05-06T18:20:30.568Z,15.95
2019-05-06T18:22:58.872Z,18.12
2019-05-06T18:25:27.174Z,16.70
2019-05-06T18:27:55.483Z,16.02
2019-05-06T18:30:33.091Z,16.77
2019-05-06T18:32:53.808Z,20.48
2019-05-06T18:35:23.071Z,22.22
2019-05-06T18:37:52.170Z,18.48
2019-05-06T18:40:20.515Z,16.10
2019-05-06T18:42:48.810Z,18.60
2019-05-06T18:45:17.115Z,20.77
2019-05-06T18:47:45.429Z,20.72
2019-05-06T18:50:14.088Z,20.48
2019-05-06T18:52:43.068Z,23.32
2019-05-06T18:55:12.358Z,23.18
2019-05-06T18:57:42.360Z,23.27
2019-05-06T19:00:11.014Z,21.37
2019-05-06T19:02:39.302Z,24.00
2019-05-06T19:05:27.006Z,23.90
2019-05-06T19:07:54.526Z,19.87
2019-05-06T19:10:33.505Z,20.10
2019-05-06T19:13:02.088Z,22.45
2019-05-06T19:15:32.854Z,21.25
2019-05-06T19:18:02.296Z,22.62
2019-05-06T19:20:33.656Z,23.32
2019-05-06T19:23:02.358Z,23.12
2019-05-06T19:25:33.912Z,24.25
2019-05-06T19:28:02.246Z,23.73
2019-05-06T19:30:32.053Z,26.15
2019-05-06T19:33:03.047Z,29.10
2019-05-06T19:35:34.133Z,29.45
2019-05-06T19:38:03.040Z,31.10
2019-05-06T19:40:32.272Z,29.95
2019-05-06T19:43:02.819Z,32.95
2019-05-06T19:45:34.403Z,28.23
2019-05-06T19:48:02.969Z,32.03
2019-05-06T19:50:32.974Z,31.05
2019-05-06T19:53:01.059Z,28.90
2019-05-06T19:55:29.380Z,32.48
2019-05-06T19:57:57.663Z,32.78
2019-05-06T20:00:26.717Z,33.28
2019-05-06T20:02:55.018Z,34.00
2019-05-06T20:05:24.942Z,33.55
2019-05-06T20:08:12.497Z,34.00
2019-05-06T20:10:42.424Z,34.40
2019-05-06T20:13:13.336Z,35.10
2019-05-06T20:15:42.601Z,34.25
2019-05-06T20:18:11.100Z,34.98
2019-05-06T20:20:42.075Z,35.88
2019-05-06T20:23:09.778Z,37.90
2019-05-06T20:25:38.051Z,38.75
2019-05-06T20:28:06.446Z,40.05
2019-05-06T20:30:34.718Z,40.73
2019-05-06T20:33:03.025Z,38.02
2019-05-06T20:35:32.305Z,39.73
2019-05-06T20:38:02.769Z,39.03
2019-05-06T20:40:32.733Z,41.05
2019-05-06T20:43:14.247Z,39.13
2019-05-06T20:45:35.082Z,38.88
2019-05-06T20:48:03.231Z,42.67
2019-05-06T20:50:32.146Z,40.35
2019-05-06T20:53:00.681Z,42.50
2019-05-06T20:55:32.398Z,40.50
2019-05-06T20:57:58.987Z,41.92
2019-05-06T21:00:27.273Z,40.05
2019-05-06T21:02:55.581Z,36.55
2019-05-06T21:05:23.860Z,39.00
2019-05-06T21:07:52.691Z,37.90
2019-05-06T21:10:22.033Z,40.12
2019-05-06T21:12:53.029Z,40.78
2019-05-06T21:15:22.741Z,39.42
2019-05-06T21:17:50.757Z,40.30
2019-05-06T21:20:19.118Z,42.48
2019-05-06T21:22:49.265Z,45.45
2019-05-06T21:25:17.460Z,44.13
2019-05-06T21:27:45.768Z,41.25
2019-05-06T21:30:15.012Z,40.23
2019-05-06T21:32:43.309Z,39.08
2019-05-06T21:35:13.243Z,41.10
2019-05-06T21:37:42.201Z,42.00
2019-05-06T21:40:12.242Z,40.80
2019-05-06T21:42:42.908Z,40.95
2019-05-06T21:45:12.521Z,40.25
2019-05-06T21:47:44.340Z,37.90
2019-05-06T21:50:12.032Z,38.23
2019-05-06T21:52:42.844Z,36.77
2019-05-06T21:55:13.107Z,32.98
2019-05-06T21:57:42.251Z,33.83
2019-05-06T22:00:16.407Z,34.30
2019-05-06T22:02:43.076Z,36.90
2019-05-06T22:05:13.313Z,33.53
2019-05-06T22:07:43.447Z,35.17
2019-05-06T22:10:12.067Z,33.42
2019-05-06T22:12:43.154Z,33.42
2019-05-06T22:15:11.872Z,32.53
2019-05-06T22:17:40.202Z,32.58
2019-05-06T22:20:08.666Z,31.93
2019-05-06T22:22:42.561Z,30.05
2019-05-06T22:25:12.512Z,31.23
2019-05-06T22:27:42.397Z,30.97
2019-05-06T22:30:11.710Z,33.45
2019-05-06T22:32:45.896Z,34.25
2019-05-06T22:35:17.664Z,34.08
2019-05-06T22:37:46.022Z,31.70
2019-05-06T22:40:14.683Z,34.03
2019-05-06T22:42:43.260Z,34.08
2019-05-06T22:45:12.569Z,34.18
2019-05-06T22:47:42.107Z,33.80
2019-05-06T22:50:13.108Z,33.88
2019-05-06T22:52:42.086Z,33.65
2019-05-06T22:55:12.780Z,34.03
2019-05-06T22:57:42.223Z,31.93
2019-05-06T23:00:15.163Z,31.35
2019-05-06T23:05:23.128Z,33.55
2019-05-06T23:07:53.189Z,35.63
2019-05-06T23:10:24.532Z,36.40
2019-05-06T23:12:52.301Z,34.55
2019-05-06T23:15:20.709Z,36.20
2019-05-06T23:17:49.383Z,35.50
2019-05-06T23:20:17.686Z,39.00
2019-05-06T23:22:45.973Z,37.15
2019-05-06T23:25:14.345Z,38.02
2019-05-06T23:27:44.149Z,38.48
2019-05-06T23:30:12.858Z,38.33
2019-05-06T23:32:42.249Z,38.95
2019-05-06T23:35:12.886Z,39.03
2019-05-06T23:38:17.421Z,39.45
2019-05-06T23:41:22.557Z,40.98
2019-05-06T23:44:27.334Z,41.15
2019-05-06T23:47:31.842Z,42.27
2019-05-06T23:50:36.957Z,39.60
2019-05-06T23:53:42.101Z,41.25
2019-05-06T23:56:45.051Z,43.33
2019-05-06T23:59:17.533Z,41.55
